Time;durP1;ratioP1;P1;durP2;ratioP2;P2;SDS_P1;SDS_P2;PMS_P1;PMS_P2;Temp;Humidity;BMP_temperature;BMP_pressure;BME280_temperature;BME280_humidity;BME280_pressure;Samples;Min_cycle;Max_cycle;Signal;HPM_P1;HPM_P2
2021/06/21 00:00:59;;;;;;;4.80;3.20;;;25.40;63.20;;;;;;3574028;40;20442;-74
2021/06/21 00:03:25;;;;;;;3.35;3.05;;;25.40;63.00;;;;;;3572635;40;20703;-74
2021/06/21 00:05:51;;;;;;;7.10;3.60;;;25.40;63.00;;;;;;3570964;40;20076;-75
2021/06/21 00:08:17;;;;;;;4.95;3.45;;;25.50;62.90;;;;;;3568942;40;20393;-75
2021/06/21 00:10:43;;;;;;;5.80;3.40;;;25.50;63.20;;;;;;3559817;40;20049;-75
2021/06/21 00:13:09;;;;;;;5.55;3.60;;;25.50;63.30;;;;;;3571023;40;20029;-74
2021/06/21 00:15:35;;;;;;;4.53;3.20;;;25.50;63.30;;;;;;3573034;40;20040;-75
2021/06/21 00:18:01;;;;;;;4.78;3.55;;;25.50;63.20;;;;;;3573720;40;20037;-75
2021/06/21 00:20:27;;;;;;;4.00;3.60;;;25.50;63.50;;;;;;3571977;40;20525;-75
2021/06/21 00:22:55;;;;;;;4.57;3.58;;;25.40;63.80;;;;;;3569821;40;20053;-75
2021/06/21 00:25:22;;;;;;;8.13;3.72;;;25.40;64.00;;;;;;3569364;40;20029;-75
2021/06/21 00:27:48;;;;;;;5.93;3.60;;;25.40;63.80;;;;;;3568290;40;20033;-75
2021/06/21 00:30:16;;;;;;;5.68;3.75;;;25.40;64.30;;;;;;3567385;40;20029;-74
2021/06/21 00:32:43;;;;;;;6.35;3.60;;;25.30;64.20;;;;;;3563283;40;20621;-75
2021/06/21 00:35:11;;;;;;;6.50;4.38;;;25.40;64.20;;;;;;3564764;40;20437;-75
2021/06/21 00:37:37;;;;;;;6.60;4.30;;;25.30;64.10;;;;;;3575772;40;20115;-73
2021/06/21 00:40:06;;;;;;;5.55;4.38;;;25.40;64.20;;;;;;3577048;40;20029;-75
2021/06/21 00:42:33;;;;;;;8.55;5.32;;;25.30;64.80;;;;;;3574190;40;20119;-75
2021/06/21 00:44:59;;;;;;;9.82;6.40;;;25.30;65.50;;;;;;3571990;40;20052;-75
2021/06/21 00:47:25;;;;;;;8.30;5.40;;;25.40;66.00;;;;;;3571936;40;20398;-75
2021/06/21 00:49:51;;;;;;;8.93;5.35;;;25.40;65.90;;;;;;3573744;40;20036;-75
2021/06/21 00:52:17;;;;;;;7.70;5.43;;;25.40;66.00;;;;;;3565545;40;20532;-74
2021/06/21 00:54:44;;;;;;;7.35;5.93;;;25.30;66.20;;;;;;3577309;40;20610;-75
2021/06/21 00:57:11;;;;;;;8.07;6.50;;;25.30;66.40;;;;;;3578220;40;20029;-75
2021/06/21 00:59:37;;;;;;;8.45;6.65;;;25.30;67.30;;;;;;3579055;40;20037;-75
2021/06/21 01:02:03;;;;;;;9.63;7.57;;;25.30;67.10;;;;;;3560374;40;20028;-75
2021/06/21 01:04:29;;;;;;;8.93;6.97;;;25.40;67.60;;;;;;3577058;40;20056;-74
2021/06/21 01:06:56;;;;;;;12.48;7.85;;;25.40;67.60;;;;;;3565952;40;20025;-75
2021/06/21 01:09:22;;;;;;;9.27;7.70;;;25.30;68.00;;;;;;3574020;40;20017;-75
2021/06/21 01:12:10;;;;;;;19.15;8.48;;;25.40;68.10;;;;;;3572395;40;20222;-75
2021/06/21 01:14:52;;;;;;;11.80;7.68;;;25.40;67.40;;;;;;3578764;40;20076;-75
2021/06/21 01:17:23;;;;;;;11.27;8.45;;;25.40;67.40;;;;;;3579729;40;20313;-74
2021/06/21 01:20:14;;;;;;;10.48;7.65;;;25.50;67.40;;;;;;3577742;40;20144;-74
2021/06/21 01:23:17;;;;;;;11.55;7.75;;;25.60;66.90;;;;;;3576408;40;20051;-74
2021/06/21 01:26:01;;;;;;;9.77;8.10;;;25.60;66.90;;;;;;3576678;40;20150;-72
2021/06/21 01:28:56;;;;;;;9.48;7.97;;;25.60;67.40;;;;;;3574344;40;20052;-72
2021/06/21 01:31:28;;;;;;;10.75;7.65;;;25.60;67.30;;;;;;3572313;40;20028;-72
2021/06/21 01:33:54;;;;;;;9.20;7.00;;;25.60;66.90;;;;;;3572093;40;20044;-72
2021/06/21 01:36:24;;;;;;;10.77;7.03;;;25.60;66.60;;;;;;3563221;40;20040;-71
2021/06/21 01:38:54;;;;;;;8.55;6.55;;;25.60;66.40;;;;;;3574395;40;20036;-72
2021/06/21 01:41:25;;;;;;;9.60;6.93;;;25.60;66.20;;;;;;3569948;40;20322;-72
2021/06/21 01:43:54;;;;;;;13.73;7.35;;;25.60;65.60;;;;;;3575625;40;20908;-72
2021/06/21 01:46:23;;;;;;;11.90;6.78;;;25.60;65.70;;;;;;3575733;40;20517;-72
2021/06/21 01:48:58;;;;;;;7.00;5.85;;;25.60;64.90;;;;;;3572244;40;20030;-72
2021/06/21 01:51:27;;;;;;;11.85;6.80;;;25.50;64.70;;;;;;3571118;40;20327;-72
2021/06/21 01:53:58;;;;;;;6.72;5.50;;;25.50;65.00;;;;;;3579862;40;20110;-71
2021/06/21 01:56:29;;;;;;;7.97;5.97;;;25.40;65.20;;;;;;3577617;40;21621;-72
2021/06/21 01:58:56;;;;;;;8.57;5.70;;;25.40;65.20;;;;;;3578003;40;20025;-72
2021/06/21 02:01:23;;;;;;;7.68;5.00;;;25.40;65.20;;;;;;3577576;40;20672;-72
2021/06/21 02:03:52;;;;;;;9.40;5.95;;;25.40;64.70;;;;;;3569132;40;20114;-72
2021/06/21 02:06:19;;;;;;;11.63;6.30;;;25.40;64.80;;;;;;3579580;40;20036;-72
2021/06/21 02:08:48;;;;;;;11.30;6.03;;;25.40;64.70;;;;;;3579634;40;20407;-72
2021/06/21 02:11:15;;;;;;;11.50;5.75;;;25.40;65.00;;;;;;3578745;40;20028;-75
2021/06/21 02:13:42;;;;;;;6.72;5.93;;;25.40;65.30;;;;;;3575693;40;20035;-75
2021/06/21 02:16:08;;;;;;;7.68;6.18;;;25.30;67.00;;;;;;3577413;40;20028;-75
2021/06/21 02:18:35;;;;;;;11.45;6.07;;;25.30;69.00;;;;;;3577524;40;20032;-74
2021/06/21 02:21:02;;;;;;;9.30;6.43;;;25.10;67.40;;;;;;3578240;40;20056;-75
2021/06/21 02:23:28;;;;;;;7.57;6.88;;;25.00;68.40;;;;;;3579973;40;20106;-75
2021/06/21 02:25:57;;;;;;;11.43;6.72;;;24.90;69.80;;;;;;3577833;40;20044;-75
2021/06/21 02:28:24;;;;;;;11.20;5.10;;;24.90;68.90;;;;;;3576986;40;20056;-74
2021/06/21 02:30:52;;;;;;;7.13;5.20;;;24.60;69.10;;;;;;3577645;40;20048;-75
2021/06/21 02:33:18;;;;;;;8.70;4.72;;;24.60;73.00;;;;;;3577921;40;20044;-75
2021/06/21 02:35:45;;;;;;;5.75;4.05;;;24.50;74.10;;;;;;3569944;40;20037;-75
2021/06/21 02:38:11;;;;;;;6.80;3.30;;;24.30;74.20;;;;;;3578291;40;20031;-75
2021/06/21 02:40:38;;;;;;;7.70;3.53;;;24.20;74.70;;;;;;3572821;40;20031;-75
2021/06/21 02:43:04;;;;;;;4.35;3.15;;;24.10;75.30;;;;;;3577324;40;20091;-75
2021/06/21 02:45:30;;;;;;;4.85;3.45;;;24.00;76.00;;;;;;3575538;40;20113;-75
2021/06/21 02:47:57;;;;;;;8.57;3.50;;;23.90;76.90;;;;;;3579155;40;20716;-75
2021/06/21 02:50:23;;;;;;;4.47;3.40;;;23.80;76.80;;;;;;3577347;40;20029;-75
2021/06/21 02:53:10;;;;;;;5.57;3.28;;;23.80;77.30;;;;;;3578494;40;20039;-74
2021/06/21 02:56:04;;;;;;;4.38;3.63;;;23.70;77.70;;;;;;3576661;40;20527;-74
2021/06/21 02:58:42;;;;;;;7.35;3.60;;;23.60;78.90;;;;;;3563466;40;20041;-74
2021/06/21 03:01:11;;;;;;;5.22;3.28;;;23.60;79.40;;;;;;3567414;40;20033;-74
2021/06/21 03:03:41;;;;;;;8.57;3.55;;;23.50;79.90;;;;;;3575256;40;20439;-74
2021/06/21 03:06:08;;;;;;;7.07;3.28;;;23.50;80.40;;;;;;3568100;40;20073;-74
2021/06/21 03:08:37;;;;;;;5.65;3.40;;;23.40;80.50;;;;;;3577444;40;20059;-74
2021/06/21 03:11:04;;;;;;;4.90;3.53;;;23.40;80.90;;;;;;3575938;40;20041;-75
2021/06/21 03:13:30;;;;;;;4.97;3.33;;;23.30;81.20;;;;;;3576487;40;20298;-74
2021/06/21 03:15:58;;;;;;;10.43;3.65;;;23.30;81.50;;;;;;3580303;40;20024;-74
2021/06/21 03:18:25;;;;;;;7.63;3.78;;;23.30;81.60;;;;;;3569396;40;20041;-74
2021/06/21 03:20:56;;;;;;;4.20;3.22;;;23.20;81.40;;;;;;3569610;40;20044;-74
2021/06/21 03:23:27;;;;;;;5.38;3.33;;;23.20;81.50;;;;;;3569983;40;20029;-74
2021/06/21 03:25:56;;;;;;;5.40;3.42;;;23.10;81.60;;;;;;3566679;40;20029;-74
2021/06/21 03:28:23;;;;;;;6.45;3.65;;;23.10;81.70;;;;;;3576408;40;20067;-74
2021/06/21 03:31:06;;;;;;;5.70;3.20;;;23.10;82.20;;;;;;3578601;40;20017;-74
2021/06/21 03:33:33;;;;;;;6.10;3.88;;;23.10;82.40;;;;;;3580222;40;20125;-75
2021/06/21 03:35:59;;;;;;;5.55;3.70;;;23.00;82.20;;;;;;3575878;40;20045;-74
2021/06/21 03:38:27;;;;;;;7.82;4.00;;;23.00;82.70;;;;;;3578820;40;20279;-75
2021/06/21 03:40:56;;;;;;;6.88;3.67;;;23.00;82.90;;;;;;3568622;40;20017;-75
2021/06/21 03:43:24;;;;;;;7.00;3.85;;;23.00;82.80;;;;;;3574883;40;20073;-75
2021/06/21 03:45:53;;;;;;;6.28;4.00;;;23.00;83.10;;;;;;3575480;40;20026;-75
2021/06/21 03:48:20;;;;;;;8.40;3.50;;;22.90;83.30;;;;;;3569827;40;20072;-75
2021/06/21 03:50:46;;;;;;;8.43;3.70;;;22.90;82.80;;;;;;3576441;40;20025;-74
2021/06/21 03:53:13;;;;;;;8.68;3.47;;;22.90;82.30;;;;;;3578025;40;20120;-75
2021/06/21 03:55:39;;;;;;;6.25;3.50;;;22.80;81.80;;;;;;3577982;40;20029;-75
2021/06/21 03:58:05;;;;;;;6.90;3.50;;;22.80;82.10;;;;;;3569393;40;20076;-75
2021/06/21 04:00:32;;;;;;;5.75;3.42;;;22.70;82.20;;;;;;3574113;40;20033;-75
2021/06/21 04:02:58;;;;;;;4.88;3.92;;;22.80;82.60;;;;;;3578565;40;20065;-74
2021/06/21 04:05:25;;;;;;;5.40;3.50;;;22.80;82.80;;;;;;3578079;40;20029;-75
2021/06/21 04:07:52;;;;;;;7.30;3.35;;;22.80;83.00;;;;;;3579342;40;20036;-75
2021/06/21 04:10:20;;;;;;;5.70;3.35;;;22.80;83.30;;;;;;3577787;40;20044;-75
2021/06/21 04:12:48;;;;;;;4.13;3.33;;;22.90;82.80;;;;;;3578008;40;20113;-75
2021/06/21 04:15:14;;;;;;;5.82;3.58;;;22.90;82.80;;;;;;3574688;40;20130;-75
2021/06/21 04:17:41;;;;;;;5.68;3.20;;;22.90;82.30;;;;;;3576245;40;20037;-74
2021/06/21 04:20:13;;;;;;;5.25;3.15;;;22.90;82.40;;;;;;3576226;40;20036;-75
2021/06/21 04:22:40;;;;;;;7.32;3.40;;;22.80;82.60;;;;;;3578971;40;20092;-75
2021/06/21 04:25:08;;;;;;;5.38;3.47;;;22.80;82.30;;;;;;3573955;40;20037;-75
2021/06/21 04:27:34;;;;;;;8.13;3.60;;;22.80;82.30;;;;;;3575404;40;20036;-75
2021/06/21 04:30:00;;;;;;;5.95;3.15;;;22.80;82.80;;;;;;3565294;40;20792;-75
2021/06/21 04:32:26;;;;;;;4.00;3.05;;;22.70;82.90;;;;;;3576948;40;20044;-74
2021/06/21 04:34:52;;;;;;;4.88;3.15;;;22.60;81.80;;;;;;3573697;40;20429;-74
2021/06/21 04:37:18;;;;;;;6.47;3.42;;;22.60;83.10;;;;;;3577298;40;20080;-74
2021/06/21 04:39:43;;;;;;;5.30;4.13;;;22.60;83.20;;;;;;3568471;40;20032;-74
2021/06/21 04:42:09;;;;;;;6.97;4.30;;;22.60;83.00;;;;;;3577043;40;20893;-74
2021/06/21 04:44:35;;;;;;;5.82;4.03;;;22.70;82.60;;;;;;3578406;40;20036;-75
2021/06/21 04:47:01;;;;;;;5.43;4.32;;;22.80;82.20;;;;;;3568230;40;20738;-74
2021/06/21 04:49:26;;;;;;;5.78;3.67;;;22.90;82.80;;;;;;3577129;40;20036;-73
2021/06/21 04:51:52;;;;;;;4.88;3.50;;;23.00;82.20;;;;;;3575029;40;20185;-73
2021/06/21 04:54:19;;;;;;;6.07;4.18;;;23.00;82.70;;;;;;3579480;40;20122;-74
2021/06/21 04:56:45;;;;;;;4.60;3.30;;;23.00;81.90;;;;;;3578503;40;20527;-75
2021/06/21 04:59:10;;;;;;;5.53;3.58;;;23.20;81.40;;;;;;3569823;40;20017;-75
2021/06/21 05:01:36;;;;;;;6.07;3.70;;;23.30;80.70;;;;;;3574890;40;20036;-74
2021/06/21 05:04:04;;;;;;;6.25;3.70;;;23.20;81.40;;;;;;3579308;40;20032;-75
2021/06/21 05:06:37;;;;;;;6.30;3.50;;;23.10;81.70;;;;;;3566178;40;20044;-75
2021/06/21 05:09:04;;;;;;;5.18;4.03;;;23.00;82.50;;;;;;3575739;40;20056;-74
2021/06/21 05:11:31;;;;;;;4.85;3.50;;;22.90;83.40;;;;;;3578657;40;20032;-74
2021/06/21 05:13:57;;;;;;;6.55;3.75;;;22.80;84.50;;;;;;3581001;40;20044;-73
2021/06/21 05:16:22;;;;;;;4.50;3.65;;;22.90;85.20;;;;;;3577592;40;20045;-74
2021/06/21 05:18:48;;;;;;;6.90;3.30;;;23.00;84.80;;;;;;3579857;40;20038;-75
2021/06/21 05:21:14;;;;;;;3.92;3.60;;;23.20;84.30;;;;;;3578604;40;20047;-74
2021/06/21 05:23:39;;;;;;;4.35;3.80;;;23.40;83.50;;;;;;3575393;40;20322;-73
2021/06/21 05:26:05;;;;;;;5.25;4.05;;;23.40;83.70;;;;;;3576814;40;20754;-73
2021/06/21 05:28:31;;;;;;;6.28;4.40;;;23.50;83.60;;;;;;3562851;40;20716;-74
2021/06/21 05:30:57;;;;;;;5.47;4.18;;;23.40;84.10;;;;;;3571968;40;20025;-74
2021/06/21 05:33:23;;;;;;;9.43;4.07;;;23.50;83.20;;;;;;3577999;40;20064;-74
2021/06/21 05:35:48;;;;;;;7.55;4.30;;;23.70;81.40;;;;;;3579935;40;20099;-73
2021/06/21 05:38:14;;;;;;;7.57;3.75;;;23.70;80.70;;;;;;3577967;40;20142;-74
2021/06/21 05:40:40;;;;;;;7.53;4.50;;;23.70;80.60;;;;;;3577354;40;20070;-74
2021/06/21 05:43:06;;;;;;;4.65;3.70;;;23.80;80.00;;;;;;3570463;40;20045;-74
2021/06/21 05:45:31;;;;;;;6.45;4.18;;;23.90;80.00;;;;;;3578502;40;20079;-74
2021/06/21 05:47:57;;;;;;;5.95;3.97;;;24.00;78.90;;;;;;3580564;40;20040;-75
2021/06/21 05:50:23;;;;;;;4.72;3.53;;;24.10;78.70;;;;;;3579387;40;20029;-73
2021/06/21 05:52:49;;;;;;;7.30;3.63;;;24.20;79.30;;;;;;3578752;40;20472;-73
2021/06/21 05:55:18;;;;;;;4.07;3.58;;;24.20;78.00;;;;;;3567704;40;20036;-73
2021/06/21 05:57:44;;;;;;;5.18;3.35;;;24.30;78.00;;;;;;3578969;40;20497;-74
2021/06/21 06:00:11;;;;;;;5.50;3.67;;;24.40;78.00;;;;;;3578339;40;20372;-73
2021/06/21 06:02:36;;;;;;;6.75;3.70;;;24.50;77.20;;;;;;3575608;40;20048;-73
2021/06/21 06:05:04;;;;;;;4.28;3.33;;;24.60;76.90;;;;;;3570171;40;20130;-74
2021/06/21 06:07:29;;;;;;;5.18;3.25;;;24.70;77.90;;;;;;3564967;40;20039;-74
2021/06/21 06:09:57;;;;;;;4.00;3.58;;;24.90;76.40;;;;;;3576238;40;20073;-74
2021/06/21 06:12:24;;;;;;;4.63;3.22;;;25.00;75.40;;;;;;3578034;40;20039;-73
2021/06/21 06:14:50;;;;;;;5.78;3.22;;;25.10;74.20;;;;;;3576759;40;20024;-74
2021/06/21 06:17:15;;;;;;;6.60;3.63;;;25.00;74.20;;;;;;3576892;40;20037;-74
2021/06/21 06:19:41;;;;;;;6.03;3.50;;;25.00;74.60;;;;;;3575915;40;20044;-74
2021/06/21 06:22:07;;;;;;;5.80;4.25;;;25.00;75.20;;;;;;3577143;40;20036;-74
2021/06/21 06:24:34;;;;;;;4.50;3.75;;;25.00;75.50;;;;;;3569376;40;20037;-74
2021/06/21 06:27:00;;;;;;;8.57;3.78;;;24.90;75.80;;;;;;3577382;40;20539;-76
2021/06/21 06:29:29;;;;;;;5.45;3.35;;;24.90;76.30;;;;;;3577391;40;20040;-74
2021/06/21 06:31:55;;;;;;;4.28;3.30;;;24.90;76.90;;;;;;3577468;40;20044;-74
2021/06/21 06:34:22;;;;;;;5.05;3.55;;;24.80;76.20;;;;;;3570430;40;20013;-73
2021/06/21 06:36:48;;;;;;;3.83;3.42;;;24.90;75.70;;;;;;3576332;40;20036;-74
2021/06/21 06:39:14;;;;;;;6.50;3.80;;;24.90;75.70;;;;;;3571329;40;20056;-74
2021/06/21 06:41:40;;;;;;;6.00;3.78;;;24.90;76.20;;;;;;3569642;40;20621;-74
2021/06/21 06:44:05;;;;;;;6.43;4.00;;;25.00;75.20;;;;;;3576247;40;20470;-73
2021/06/21 06:46:32;;;;;;;9.05;4.30;;;25.10;75.00;;;;;;3576670;40;20084;-73
2021/06/21 06:48:58;;;;;;;5.90;3.90;;;25.10;74.90;;;;;;3567722;40;20366;-74
2021/06/21 06:51:24;;;;;;;6.93;3.90;;;25.20;75.70;;;;;;3574188;40;20037;-74
2021/06/21 06:53:54;;;;;;;5.55;3.60;;;25.30;75.30;;;;;;3566441;40;20119;-73
2021/06/21 06:59:04;;;;;;;5.38;4.03;;;25.10;74.20;;;;;;3574242;40;20072;-73
2021/06/21 07:01:30;;;;;;;5.68;4.43;;;25.10;75.00;;;;;;3576941;40;20029;-74
2021/06/21 07:03:56;;;;;;;6.57;4.43;;;25.10;75.50;;;;;;3569653;40;20036;-73
2021/06/21 07:06:22;;;;;;;8.20;4.60;;;25.10;75.50;;;;;;3575035;40;20607;-73
2021/06/21 07:08:48;;;;;;;6.75;4.63;;;25.10;76.60;;;;;;3573778;40;20043;-74
2021/06/21 07:11:15;;;;;;;6.30;4.47;;;25.10;76.20;;;;;;3574890;40;20039;-74
2021/06/21 07:13:41;;;;;;;6.32;4.03;;;25.20;76.80;;;;;;3576989;40;20391;-73
2021/06/21 07:16:08;;;;;;;5.38;4.60;;;25.20;76.20;;;;;;3575035;40;20758;-74
2021/06/21 07:18:34;;;;;;;5.25;4.32;;;25.20;75.20;;;;;;3577979;40;20029;-73
2021/06/21 07:21:00;;;;;;;8.50;4.55;;;25.20;74.60;;;;;;3574324;40;20089;-74
2021/06/21 07:23:26;;;;;;;7.72;4.63;;;25.20;75.60;;;;;;3575006;40;20055;-74
2021/06/21 07:25:52;;;;;;;6.63;4.90;;;25.30;75.20;;;;;;3574925;40;20978;-74
2021/06/21 07:28:17;;;;;;;6.00;4.63;;;25.20;75.20;;;;;;3579057;40;20039;-73
2021/06/21 07:30:44;;;;;;;7.30;4.75;;;25.40;75.10;;;;;;3563813;40;20072;-74
2021/06/21 07:33:11;;;;;;;8.70;5.00;;;25.60;73.60;;;;;;3577298;40;20203;-74
2021/06/21 07:35:40;;;;;;;5.88;4.57;;;25.70;73.10;;;;;;3576046;40;20044;-74
2021/06/21 07:38:07;;;;;;;8.85;5.10;;;25.80;71.40;;;;;;3576678;40;20143;-74
2021/06/21 07:40:34;;;;;;;9.82;5.03;;;25.90;70.80;;;;;;3573158;40;20068;-73
2021/06/21 07:43:01;;;;;;;5.72;4.20;;;26.00;68.80;;;;;;3577981;40;20392;-74
2021/06/21 07:45:27;;;;;;;11.82;5.80;;;26.10;69.00;;;;;;3573631;40;20041;-73
2021/06/21 07:47:54;;;;;;;9.75;5.30;;;26.30;68.40;;;;;;3569342;40;20043;-74
2021/06/21 07:50:20;;;;;;;8.70;5.22;;;26.20;67.20;;;;;;3573052;40;20129;-74
2021/06/21 07:52:46;;;;;;;11.90;5.85;;;26.10;67.10;;;;;;3576199;40;20028;-74
2021/06/21 07:55:12;;;;;;;9.98;4.85;;;26.10;68.00;;;;;;3573808;40;20041;-74
2021/06/21 07:57:37;;;;;;;9.32;5.53;;;26.10;68.30;;;;;;3575587;40;20380;-73
2021/06/21 08:00:05;;;;;;;10.05;5.25;;;26.10;68.00;;;;;;3573200;40;20032;-74
2021/06/21 08:02:38;;;;;;;7.65;5.30;;;26.20;68.10;;;;;;3565245;40;20107;-73
2021/06/21 08:05:04;;;;;;;6.25;4.78;;;26.30;68.00;;;;;;3577938;40;20125;-73
2021/06/21 08:07:29;;;;;;;9.82;5.28;;;26.40;67.90;;;;;;3576599;40;20048;-73
2021/06/21 08:09:55;;;;;;;8.15;4.20;;;26.50;68.10;;;;;;3567921;40;20108;-74
2021/06/21 08:12:21;;;;;;;6.57;4.38;;;26.60;67.60;;;;;;3567298;40;20052;-73
2021/06/21 08:14:46;;;;;;;10.98;4.43;;;26.80;66.60;;;;;;3575886;40;20032;-74
2021/06/21 08:17:12;;;;;;;8.30;4.53;;;26.90;65.70;;;;;;3565452;40;20033;-74
2021/06/21 08:19:38;;;;;;;5.82;4.07;;;27.00;65.80;;;;;;3577727;40;20396;-73
2021/06/21 08:22:04;;;;;;;4.10;3.67;;;27.00;65.20;;;;;;3572453;40;20418;-74
2021/06/21 08:24:30;;;;;;;7.60;4.10;;;27.20;64.50;;;;;;3576759;40;20238;-74
2021/06/21 08:27:00;;;;;;;4.97;3.90;;;27.30;63.40;;;;;;3574783;40;20658;-74
2021/06/21 08:29:26;;;;;;;7.15;4.53;;;27.40;63.30;;;;;;3575851;40;20610;-74
2021/06/21 08:31:52;;;;;;;5.85;4.00;;;27.50;62.50;;;;;;3573415;40;20904;-74
2021/06/21 08:34:17;;;;;;;12.73;4.85;;;27.70;63.10;;;;;;3572281;40;20037;-73
2021/06/21 08:36:43;;;;;;;4.65;3.20;;;27.80;61.80;;;;;;3573901;40;20064;-74
2021/06/21 08:39:08;;;;;;;5.10;3.78;;;28.00;60.70;;;;;;3576924;40;20060;-73
2021/06/21 08:41:37;;;;;;;4.18;3.75;;;28.10;60.20;;;;;;3567030;40;20028;-73
2021/06/21 08:44:03;;;;;;;3.72;3.25;;;28.10;60.50;;;;;;3574698;40;20056;-74
2021/06/21 08:46:29;;;;;;;7.60;3.70;;;28.10;60.70;;;;;;3572453;40;20025;-74
2021/06/21 08:48:56;;;;;;;5.95;3.78;;;28.10;60.70;;;;;;3575511;40;20040;-73
2021/06/21 08:51:22;;;;;;;9.32;4.15;;;28.30;60.60;;;;;;3572629;40;20097;-73
2021/06/21 08:53:48;;;;;;;6.18;3.25;;;28.40;59.80;;;;;;3573778;40;20113;-71
2021/06/21 08:56:13;;;;;;;6.05;3.55;;;28.30;59.50;;;;;;3573936;40;20020;-73
2021/06/21 08:58:40;;;;;;;5.90;2.85;;;28.30;59.10;;;;;;3572615;40;20037;-74
2021/06/21 09:01:07;;;;;;;5.97;3.38;;;28.30;59.40;;;;;;3567942;40;20036;-73
2021/06/21 09:03:34;;;;;;;6.05;3.30;;;28.30;59.40;;;;;;3567266;40;20608;-73
2021/06/21 09:06:00;;;;;;;8.35;3.25;;;28.30;59.00;;;;;;3573769;40;20350;-73
2021/06/21 09:08:26;;;;;;;5.38;2.65;;;28.30;59.50;;;;;;3575704;40;20406;-74
2021/06/21 09:10:52;;;;;;;4.95;2.80;;;28.40;58.90;;;;;;3576568;40;20070;-73
2021/06/21 09:13:19;;;;;;;9.20;2.90;;;28.50;57.10;;;;;;3575869;40;20029;-73
2021/06/21 09:15:52;;;;;;;4.72;2.80;;;28.50;58.20;;;;;;3577280;40;20299;-72
2021/06/21 09:18:37;;;;;;;6.00;3.15;;;28.50;57.30;;;;;;3577683;40;20028;-71
2021/06/21 09:21:23;;;;;;;5.57;2.75;;;28.60;57.90;;;;;;3572487;40;20037;-73
2021/06/21 09:23:51;;;;;;;5.05;2.55;;;28.70;57.80;;;;;;3571040;40;20801;-72
2021/06/21 09:26:23;;;;;;;4.80;2.90;;;28.80;57.00;;;;;;3567858;40;20045;-71
2021/06/21 09:28:49;;;;;;;6.07;2.60;;;28.90;57.10;;;;;;3575699;40;20044;-72
2021/06/21 09:31:16;;;;;;;5.82;2.75;;;29.10;56.10;;;;;;3572915;40;20658;-73
2021/06/21 09:33:42;;;;;;;5.18;2.90;;;29.10;56.40;;;;;;3568958;40;20598;-72
2021/06/21 09:36:08;;;;;;;4.97;2.85;;;29.10;56.50;;;;;;3574890;40;20021;-71
2021/06/21 09:38:34;;;;;;;5.78;2.83;;;29.20;56.10;;;;;;3574744;40;20043;-72
2021/06/21 09:41:00;;;;;;;5.03;2.70;;;29.10;56.30;;;;;;3575762;40;20385;-72
2021/06/21 09:43:27;;;;;;;6.70;2.60;;;29.10;56.50;;;;;;3564594;40;20043;-72
2021/06/21 09:46:08;;;;;;;4.65;3.03;;;29.00;56.70;;;;;;3574702;40;20036;-72
2021/06/21 09:48:40;;;;;;;6.88;2.97;;;29.00;56.80;;;;;;3577033;40;20039;-73
2021/06/21 09:51:25;;;;;;;5.20;2.75;;;28.90;56.50;;;;;;3573128;40;20037;-73
2021/06/21 09:54:10;;;;;;;6.07;3.15;;;28.90;56.60;;;;;;3576138;40;20319;-72
2021/06/21 09:56:49;;;;;;;7.28;2.75;;;28.80;57.00;;;;;;3575624;40;20784;-72
2021/06/21 09:59:33;;;;;;;4.13;2.88;;;28.80;57.40;;;;;;3576040;40;20799;-72
2021/06/21 10:02:03;;;;;;;4.80;2.67;;;28.60;57.70;;;;;;3575446;40;20620;-72
2021/06/21 10:04:29;;;;;;;8.32;2.95;;;28.60;58.10;;;;;;3577186;40;20037;-72
2021/06/21 10:06:55;;;;;;;6.75;4.18;;;28.70;58.30;;;;;;3571820;40;20347;-73
2021/06/21 10:09:22;;;;;;;5.97;2.80;;;28.70;58.30;;;;;;3575505;40;20053;-72
2021/06/21 10:11:48;;;;;;;5.28;3.28;;;28.60;58.10;;;;;;3574218;40;20036;-72
2021/06/21 10:14:19;;;;;;;6.35;2.78;;;28.70;58.30;;;;;;3576523;40;20033;-72
2021/06/21 10:16:48;;;;;;;5.53;2.67;;;28.70;58.40;;;;;;3578624;40;20055;-72
2021/06/21 10:19:15;;;;;;;7.18;2.55;;;28.70;58.50;;;;;;3568885;40;20040;-72
2021/06/21 10:21:44;;;;;;;5.70;3.08;;;28.80;58.50;;;;;;3567821;40;20025;-71
2021/06/21 10:24:11;;;;;;;3.33;2.63;;;28.80;58.40;;;;;;3577725;40;20044;-72
2021/06/21 10:26:42;;;;;;;3.10;2.80;;;28.70;58.40;;;;;;3575939;40;20078;-72
2021/06/21 10:29:08;;;;;;;5.00;2.95;;;28.60;58.80;;;;;;3578782;40;20024;-73
2021/06/21 10:31:35;;;;;;;7.13;3.40;;;28.60;59.60;;;;;;3568307;40;20060;-71
2021/06/21 10:34:06;;;;;;;5.68;2.78;;;28.60;59.80;;;;;;3575629;40;20031;-73
2021/06/21 10:36:46;;;;;;;5.88;2.70;;;28.80;59.70;;;;;;3572495;40;20110;-74
2021/06/21 10:39:33;;;;;;;4.00;2.88;;;28.90;59.70;;;;;;3574377;40;20310;-72
2021/06/21 10:42:05;;;;;;;7.03;2.35;;;29.00;58.50;;;;;;3575136;40;20882;-72
2021/06/21 10:44:41;;;;;;;5.78;2.20;;;29.00;58.10;;;;;;3576903;40;20159;-71
2021/06/21 10:47:39;;;;;;;4.47;2.30;;;29.10;58.30;;;;;;3577425;40;20028;-72
2021/06/21 10:50:15;;;;;;;4.88;2.00;;;29.20;57.50;;;;;;3574788;40;20085;-75
2021/06/21 10:53:01;;;;;;;5.07;2.38;;;29.50;56.70;;;;;;3566756;40;20044;-72
2021/06/21 10:55:33;;;;;;;6.13;1.95;;;29.70;55.20;;;;;;3574113;40;20051;-72
2021/06/21 10:58:00;;;;;;;4.43;2.38;;;30.00;55.10;;;;;;3577508;40;20021;-72
2021/06/21 11:00:46;;;;;;;10.98;2.30;;;30.00;55.20;;;;;;3566928;40;20020;-73
2021/06/21 11:03:29;;;;;;;5.95;1.83;;;30.00;55.10;;;;;;3577443;40;20410;-74
2021/06/21 11:06:01;;;;;;;6.55;1.90;;;30.10;52.20;;;;;;3577492;40;20058;-74
2021/06/21 11:08:33;;;;;;;6.30;2.30;;;30.20;52.10;;;;;;3568773;40;20040;-73
2021/06/21 11:10:59;;;;;;;5.05;2.00;;;30.20;52.50;;;;;;3577219;40;20054;-73
2021/06/21 11:13:34;;;;;;;7.97;2.40;;;30.20;52.20;;;;;;3577155;40;20380;-73
2021/06/21 11:16:16;;;;;;;7.90;1.83;;;30.20;52.40;;;;;;3577342;40;20060;-73
2021/06/21 11:18:43;;;;;;;7.70;3.30;;;30.20;52.50;;;;;;3575110;40;20049;-73
2021/06/21 11:21:22;;;;;;;5.60;2.13;;;30.30;52.60;;;;;;3577370;40;20025;-73
2021/06/21 11:23:51;;;;;;;5.93;2.08;;;30.40;51.90;;;;;;3576132;40;20893;-74
2021/06/21 11:26:17;;;;;;;7.00;2.17;;;30.50;51.40;;;;;;3573514;40;20225;-73
2021/06/21 11:28:45;;;;;;;8.93;2.28;;;30.50;50.80;;;;;;3574055;40;20772;-74
2021/06/21 11:31:23;;;;;;;6.45;2.20;;;30.40;50.60;;;;;;3570692;40;20025;-73
2021/06/21 11:33:57;;;;;;;8.65;2.50;;;30.30;50.70;;;;;;3571050;40;20032;-74
2021/06/21 11:36:38;;;;;;;6.50;2.35;;;30.40;51.10;;;;;;3572669;40;20650;-73
2021/06/21 11:39:27;;;;;;;6.38;2.10;;;30.40;51.60;;;;;;3573030;40;20037;-74
2021/06/21 11:42:02;;;;;;;9.10;2.42;;;30.40;50.90;;;;;;3573811;40;20027;-74
2021/06/21 11:44:39;;;;;;;7.65;2.05;;;30.50;50.60;;;;;;3576435;40;20089;-74
2021/06/21 11:47:25;;;;;;;8.15;2.80;;;30.50;50.60;;;;;;3576722;40;20036;-74
2021/06/21 11:49:56;;;;;;;6.97;2.40;;;30.50;50.80;;;;;;3577174;40;20133;-73
2021/06/21 11:52:25;;;;;;;5.72;2.00;;;30.60;50.70;;;;;;3573508;40;20126;-74
2021/06/21 11:54:52;;;;;;;7.10;2.20;;;30.70;50.00;;;;;;3573172;40;20028;-74
2021/06/21 11:57:19;;;;;;;11.07;2.03;;;30.80;49.70;;;;;;3573919;40;20044;-72
2021/06/21 11:59:50;;;;;;;4.03;2.05;;;30.90;49.00;;;;;;3573430;40;20038;-72
2021/06/21 12:02:22;;;;;;;6.47;2.25;;;30.90;50.00;;;;;;3564203;40;20040;-72
2021/06/21 12:04:50;;;;;;;5.25;2.38;;;30.90;49.40;;;;;;3573633;40;20036;-72
2021/06/21 12:07:33;;;;;;;7.05;2.20;;;30.90;49.10;;;;;;3572687;40;20041;-72
2021/06/21 12:10:01;;;;;;;7.38;2.38;;;30.80;48.80;;;;;;3566672;40;20418;-72
2021/06/21 12:12:29;;;;;;;11.10;3.05;;;30.90;49.10;;;;;;3563924;40;20186;-71
2021/06/21 12:14:55;;;;;;;7.35;2.38;;;30.90;49.60;;;;;;3564307;40;20122;-72
2021/06/21 12:17:26;;;;;;;5.18;2.22;;;30.90;49.60;;;;;;3577341;40;20035;-72
2021/06/21 12:20:02;;;;;;;6.18;2.03;;;30.80;48.70;;;;;;3577814;40;20120;-75
2021/06/21 12:22:28;;;;;;;6.85;2.33;;;30.90;49.00;;;;;;3572556;40;20029;-72
2021/06/21 12:24:53;;;;;;;11.65;2.95;;;31.10;49.20;;;;;;3574496;40;20040;-72
2021/06/21 12:27:19;;;;;;;8.98;2.55;;;31.30;48.90;;;;;;3574013;40;20033;-72
2021/06/21 12:29:45;;;;;;;6.15;2.72;;;31.40;47.70;;;;;;3574807;40;20017;-72
2021/06/21 12:32:13;;;;;;;9.50;2.55;;;31.40;47.20;;;;;;3571437;40;20032;-73
2021/06/21 12:34:56;;;;;;;6.05;2.22;;;31.40;46.40;;;;;;3571336;40;20626;-72
2021/06/21 12:37:28;;;;;;;5.25;2.17;;;31.30;45.30;;;;;;3568562;40;20565;-74
2021/06/21 12:39:59;;;;;;;8.02;2.10;;;31.30;47.40;;;;;;3571213;40;20025;-73
2021/06/21 12:42:28;;;;;;;7.65;2.53;;;31.20;47.40;;;;;;3574973;40;20032;-75
2021/06/21 12:44:54;;;;;;;5.32;2.03;;;31.30;47.30;;;;;;3573444;40;20033;-76
2021/06/21 12:47:25;;;;;;;8.57;2.15;;;31.40;46.80;;;;;;3564150;40;20032;-75
2021/06/21 12:49:54;;;;;;;5.50;2.10;;;31.60;46.40;;;;;;3568195;40;20076;-76
2021/06/21 12:52:24;;;;;;;10.20;2.08;;;31.80;45.00;;;;;;3576279;40;20059;-75
2021/06/21 12:55:06;;;;;;;8.52;2.40;;;31.80;44.70;;;;;;3576067;40;20886;-75
2021/06/21 12:57:50;;;;;;;7.82;2.20;;;31.70;45.10;;;;;;3575559;40;20436;-73